createdAt,value
2023-03-24T00:03:10.896Z,2.00
2023-03-24T00:08:17.136Z,2.17
2023-03-24T00:13:20.346Z,2.37
2023-03-24T00:18:25.936Z,2.53
2023-03-24T00:23:32.631Z,2.10
2023-03-24T00:28:37.644Z,2.10
2023-03-24T00:33:41.354Z,2.03
2023-03-24T00:38:47.307Z,2.00
2023-03-24T00:43:53.975Z,2.70
2023-03-24T00:49:02.733Z,2.13
2023-03-24T00:54:09.427Z,2.13
2023-03-24T00:59:14.061Z,2.60
2023-03-24T01:04:17.292Z,2.20
2023-03-24T01:09:22.063Z,2.33
2023-03-24T01:14:25.332Z,2.20
2023-03-24T01:19:29.284Z,1.83
2023-03-24T01:24:33.858Z,2.20
2023-03-24T01:29:37.359Z,2.10
2023-03-24T01:34:40.603Z,2.43
2023-03-24T01:39:45.130Z,2.17
2023-03-24T01:44:54.292Z,2.70
2023-03-24T01:50:03.119Z,2.37
2023-03-24T01:55:12.819Z,2.50
2023-03-24T02:00:19.556Z,2.60
2023-03-24T02:05:46.322Z,2.00
2023-03-24T02:10:56.284Z,2.33
2023-03-24T02:16:15.099Z,2.70
2023-03-24T02:21:56.650Z,1.30
2023-03-24T02:27:15.818Z,0.80
2023-03-24T02:33:09.781Z,1.10
2023-03-24T02:38:29.063Z,0.90
2023-03-24T02:43:45.896Z,1.23
2023-03-24T02:49:02.964Z,0.97
2023-03-24T02:54:12.140Z,1.10
2023-03-24T02:59:23.316Z,1.30
2023-03-24T03:04:34.477Z,1.30
2023-03-24T03:09:41.218Z,1.70
2023-03-24T03:14:51.847Z,1.50
2023-03-24T03:19:58.154Z,1.93
2023-03-24T03:25:03.913Z,1.97
2023-03-24T03:30:14.678Z,2.43
2023-03-24T03:35:23.926Z,2.60
2023-03-24T03:40:32.483Z,2.00
2023-03-24T03:45:45.071Z,2.43
2023-03-24T03:50:57.421Z,2.67
2023-03-24T03:56:10.554Z,2.63
2023-03-24T04:01:26.620Z,3.97
2023-03-24T04:07:08.314Z,2.30
2023-03-24T04:12:35.846Z,4.27
2023-03-24T04:18:20.906Z,4.10
2023-03-24T04:23:42.104Z,2.80
2023-03-24T04:28:58.663Z,2.37
2023-03-24T04:34:09.945Z,3.47
2023-03-24T04:39:17.843Z,2.97
2023-03-24T04:44:27.908Z,4.00
2023-03-24T04:49:53.227Z,3.10
2023-03-24T04:54:57.466Z,2.80
2023-03-24T05:00:02.918Z,3.90
2023-03-24T05:05:09.971Z,3.37
2023-03-24T05:10:21.822Z,2.90
2023-03-24T05:15:30.814Z,3.23
2023-03-24T05:20:55.142Z,3.70
2023-03-24T05:25:58.674Z,4.50
2023-03-24T05:31:05.101Z,3.53
2023-03-24T05:36:22.510Z,2.83
2023-03-24T05:41:34.644Z,3.20
2023-03-24T05:46:38.207Z,3.03
2023-03-24T05:51:43.100Z,4.00
2023-03-24T05:56:46.789Z,2.80
2023-03-24T06:02:09.491Z,3.37
2023-03-24T06:07:26.607Z,3.77
2023-03-24T06:12:31.624Z,3.20
2023-03-24T06:17:38.502Z,2.60
2023-03-24T06:22:54.493Z,3.30
2023-03-24T06:28:06.124Z,2.50
2023-03-24T06:33:11.422Z,2.63
2023-03-24T06:38:16.764Z,2.80
2023-03-24T06:43:21.323Z,3.20
2023-03-24T06:48:26.445Z,2.63
2023-03-24T06:53:38.866Z,4.07
2023-03-24T06:58:42.101Z,2.57
2023-03-24T07:03:52.009Z,3.43
2023-03-24T07:09:15.175Z,3.13
2023-03-24T07:14:18.381Z,2.40
2023-03-24T07:19:23.213Z,3.10
2023-03-24T07:24:39.521Z,3.00
2023-03-24T07:30:03.433Z,3.53
2023-03-24T07:35:17.022Z,2.87
2023-03-24T07:40:22.272Z,2.40
2023-03-24T07:45:26.103Z,2.90
2023-03-24T07:50:30.066Z,2.53
2023-03-24T07:55:38.060Z,2.73
2023-03-24T08:00:55.581Z,3.00
2023-03-24T08:06:12.124Z,2.93
2023-03-24T08:11:20.983Z,2.80
2023-03-24T08:16:24.921Z,3.30
2023-03-24T08:21:28.104Z,2.60
2023-03-24T08:26:37.988Z,2.77
2023-03-24T08:31:41.206Z,3.03
2023-03-24T08:36:44.210Z,2.67
2023-03-24T08:41:50.319Z,3.57
2023-03-24T08:47:02.086Z,2.40
2023-03-24T08:52:05.726Z,2.10
2023-03-24T08:57:10.208Z,3.10
2023-03-24T09:02:16.478Z,2.50
2023-03-24T09:07:19.531Z,3.70
2023-03-24T09:12:24.066Z,2.43
2023-03-24T09:17:27.629Z,3.57
2023-03-24T09:22:30.856Z,2.47
2023-03-24T09:27:35.357Z,2.33
2023-03-24T09:32:38.460Z,2.47
2023-03-24T09:37:43.364Z,2.57
2023-03-24T09:42:56.620Z,2.60
2023-03-24T09:48:04.687Z,2.40
2023-03-24T09:53:16.858Z,2.80
2023-03-24T09:58:21.813Z,2.10
2023-03-24T10:03:25.365Z,2.10
2023-03-24T10:08:33.696Z,2.73
2023-03-24T10:13:55.381Z,1.87
2023-03-24T10:19:04.542Z,2.50
2023-03-24T10:24:15.618Z,2.80
2023-03-24T10:29:26.033Z,2.20
2023-03-24T10:34:35.167Z,2.13
2023-03-24T10:39:44.898Z,2.40
2023-03-24T10:44:54.579Z,2.43
2023-03-24T10:50:14.307Z,1.60
2023-03-24T10:55:23.626Z,2.13
2023-03-24T11:00:31.734Z,2.40
2023-03-24T11:05:37.983Z,2.33
2023-03-24T11:10:41.570Z,2.17
2023-03-24T11:15:55.412Z,2.13
2023-03-24T11:21:04.254Z,2.27
2023-03-24T11:26:11.170Z,1.60
2023-03-24T11:36:47.313Z,1.50
2023-03-24T11:42:02.504Z,1.93
2023-03-24T11:47:13.575Z,1.70
2023-03-24T11:52:23.757Z,1.70
2023-03-24T11:57:48.971Z,2.20
2023-03-24T12:03:25.020Z,2.27
2023-03-24T12:08:40.042Z,1.87
2023-03-24T12:13:45.518Z,2.20
2023-03-24T12:19:23.074Z,2.00
2023-03-24T12:24:41.677Z,2.10
2023-03-24T12:30:00.817Z,1.90
2023-03-24T12:35:45.856Z,2.13
2023-03-24T12:41:05.395Z,1.80
2023-03-24T12:46:29.561Z,2.73
2023-03-24T12:51:48.281Z,2.10
2023-03-24T12:56:59.277Z,2.30
2023-03-24T13:02:10.962Z,2.10
2023-03-24T13:07:20.072Z,2.90
2023-03-24T13:12:25.977Z,2.03
2023-03-24T13:17:34.362Z,1.20
2023-03-24T13:22:39.515Z,0.90
2023-03-24T13:27:51.016Z,1.60
2023-03-24T13:32:56.670Z,1.40
2023-03-24T13:38:07.649Z,1.13
2023-03-24T13:43:15.489Z,1.43
2023-03-24T13:48:34.932Z,1.53
2023-03-24T13:53:45.010Z,1.30
2023-03-24T13:59:04.661Z,1.27
2023-03-24T14:04:45.498Z,1.10
2023-03-24T14:10:01.136Z,1.40
2023-03-24T14:15:15.762Z,1.20
2023-03-24T14:20:29.465Z,0.90
2023-03-24T14:25:45.710Z,1.20
2023-03-24T14:31:13.491Z,1.43
2023-03-24T14:36:23.283Z,1.20
2023-03-24T14:41:32.016Z,1.57
2023-03-24T14:46:38.615Z,1.50
2023-03-24T14:51:44.816Z,1.87
2023-03-24T14:56:54.102Z,1.77
2023-03-24T15:02:05.428Z,1.93
2023-03-24T15:07:14.950Z,1.43
2023-03-24T15:12:21.172Z,1.70
2023-03-24T15:23:10.095Z,1.87
2023-03-24T15:28:21.635Z,2.07
2023-03-24T15:33:26.171Z,2.23
2023-03-24T15:38:30.892Z,2.37
2023-03-24T15:43:43.360Z,1.80
2023-03-24T15:48:48.711Z,2.27
2023-03-24T15:53:59.228Z,2.20
2023-03-24T15:59:16.308Z,2.03
2023-03-24T16:04:23.420Z,3.20
2023-03-24T16:09:28.129Z,1.97
2023-03-24T16:14:33.320Z,2.53
2023-03-24T16:19:37.893Z,1.67
2023-03-24T16:24:41.066Z,1.93
2023-03-24T16:29:45.478Z,1.77
2023-03-24T16:34:51.326Z,3.23
2023-03-24T16:39:54.828Z,2.27
2023-03-24T16:44:59.484Z,2.07
2023-03-24T16:50:02.642Z,1.87
2023-03-24T16:55:06.725Z,2.00
2023-03-24T17:00:13.063Z,1.93
2023-03-24T17:05:24.391Z,1.77
2023-03-24T17:10:28.680Z,2.37
2023-03-24T17:15:36.565Z,1.70
2023-03-24T17:20:40.757Z,1.70
2023-03-24T17:25:43.788Z,2.47
2023-03-24T17:30:50.530Z,1.90
2023-03-24T17:35:55.080Z,1.60
2023-03-24T17:41:02.401Z,1.63
2023-03-24T17:46:07.067Z,1.43
2023-03-24T17:51:10.169Z,1.67
2023-03-24T17:56:13.620Z,1.40
2023-03-24T18:01:21.341Z,1.80
2023-03-24T18:06:24.532Z,1.23
2023-03-24T18:11:28.032Z,1.43
2023-03-24T18:16:35.558Z,1.30
2023-03-24T18:21:39.934Z,1.80
2023-03-24T18:26:43.305Z,1.30
2023-03-24T18:31:47.847Z,1.23
2023-03-24T18:36:53.665Z,1.63
2023-03-24T18:41:59.626Z,1.93
2023-03-24T18:47:04.446Z,1.10
2023-03-24T18:52:09.614Z,1.07
2023-03-24T18:57:13.312Z,2.47
2023-03-24T19:02:18.277Z,2.63
2023-03-24T19:07:24.722Z,1.70
2023-03-24T19:12:28.142Z,1.23
2023-03-24T19:17:33.321Z,1.43
2023-03-24T19:22:36.700Z,1.40
2023-03-24T19:27:39.823Z,1.90
2023-03-24T19:32:44.425Z,1.50
2023-03-24T19:37:53.782Z,1.73
2023-03-24T19:42:56.904Z,1.20
2023-03-24T19:48:03.455Z,1.43
2023-03-24T19:53:06.527Z,1.60
2023-03-24T19:58:09.964Z,1.33
2023-03-24T20:03:14.648Z,1.70
2023-03-24T20:08:19.315Z,1.50
2023-03-24T20:13:24.160Z,1.67
2023-03-24T20:18:28.699Z,1.50
2023-03-24T20:23:32.228Z,2.40
2023-03-24T20:28:35.486Z,1.33
2023-03-24T20:33:40.412Z,1.40
2023-03-24T20:38:43.915Z,1.50
2023-03-24T20:43:47.149Z,1.93
2023-03-24T20:48:53.752Z,1.57
2023-03-24T20:53:57.020Z,1.70
2023-03-24T20:59:01.122Z,1.70
2023-03-24T21:04:09.406Z,1.80
2023-03-24T21:09:13.555Z,1.87
2023-03-24T21:14:16.638Z,1.30
2023-03-24T21:19:22.932Z,1.70
2023-03-24T21:24:28.658Z,1.30
2023-03-24T21:29:31.925Z,1.77
2023-03-24T21:34:36.790Z,2.63
2023-03-24T21:39:39.932Z,2.10
2023-03-24T21:44:43.002Z,1.73
2023-03-24T21:49:52.560Z,1.60
2023-03-24T21:54:58.152Z,1.83
2023-03-24T22:00:02.028Z,1.67
2023-03-24T22:05:17.230Z,1.60
2023-03-24T22:10:23.046Z,1.97
2023-03-24T22:15:26.240Z,1.40
2023-03-24T22:20:32.001Z,1.60
2023-03-24T22:25:35.541Z,1.63
2023-03-24T22:30:41.986Z,1.70
2023-03-24T22:35:47.856Z,1.50
2023-03-24T22:40:52.023Z,2.57
2023-03-24T22:45:55.560Z,2.00
2023-03-24T22:51:00.069Z,2.60
2023-03-24T22:56:03.674Z,1.80
2023-03-24T23:01:07.921Z,3.37
2023-03-24T23:06:13.356Z,1.93
2023-03-24T23:11:16.817Z,1.73
2023-03-24T23:16:21.438Z,1.93
2023-03-24T23:21:26.222Z,2.13
2023-03-24T23:26:30.336Z,2.63
2023-03-24T23:31:33.531Z,1.87
2023-03-24T23:36:39.832Z,2.40
2023-03-24T23:41:43.151Z,1.77
2023-03-24T23:46:46.311Z,2.40
2023-03-24T23:51:51.502Z,2.47
2023-03-24T23:56:54.979Z,2.30
